sensor_id;sensor_type;location;lat;lon;timestamp;P1;durP1;ratioP1;P2;durP2;ratioP2
69783;SDS011;57054;51.978;4.498;2023-02-15T00:01:29;28.83;;;17.80;;
69783;SDS011;57054;51.978;4.498;2023-02-15T00:03:55;29.52;;;18.23;;
69783;SDS011;57054;51.978;4.498;2023-02-15T00:06:20;28.73;;;18.25;;
69783;SDS011;57054;51.978;4.498;2023-02-15T00:08:47;26.67;;;16.42;;
69783;SDS011;57054;51.978;4.498;2023-02-15T00:11:13;26.83;;;16.88;;
69783;SDS011;57054;51.978;4.498;2023-02-15T00:13:40;23.15;;;14.85;;
69783;SDS011;57054;51.978;4.498;2023-02-15T00:16:07;23.85;;;15.45;;
69783;SDS011;57054;51.978;4.498;2023-02-15T00:18:40;23.83;;;15.68;;
69783;SDS011;57054;51.978;4.498;2023-02-15T00:21:06;21.70;;;14.68;;
69783;SDS011;57054;51.978;4.498;2023-02-15T00:23:33;19.73;;;13.48;;
69783;SDS011;57054;51.978;4.498;2023-02-15T00:26:09;20.23;;;14.27;;
69783;SDS011;57054;51.978;4.498;2023-02-15T00:28:36;21.95;;;14.23;;
69783;SDS011;57054;51.978;4.498;2023-02-15T00:31:05;21.67;;;14.63;;
69783;SDS011;57054;51.978;4.498;2023-02-15T00:33:31;22.77;;;14.98;;
69783;SDS011;57054;51.978;4.498;2023-02-15T00:35:58;21.95;;;15.07;;
69783;SDS011;57054;51.978;4.498;2023-02-15T00:38:26;21.58;;;13.73;;
69783;SDS011;57054;51.978;4.498;2023-02-15T00:40:53;20.95;;;14.52;;
69783;SDS011;57054;51.978;4.498;2023-02-15T00:43:19;22.88;;;14.05;;
69783;SDS011;57054;51.978;4.498;2023-02-15T00:45:45;19.85;;;13.40;;
69783;SDS011;57054;51.978;4.498;2023-02-15T00:48:10;17.95;;;11.85;;
69783;SDS011;57054;51.978;4.498;2023-02-15T00:50:36;18.05;;;12.43;;
69783;SDS011;57054;51.978;4.498;2023-02-15T00:53:01;20.75;;;13.95;;
69783;SDS011;57054;51.978;4.498;2023-02-15T00:55:26;21.85;;;14.48;;
69783;SDS011;57054;51.978;4.498;2023-02-15T00:57:52;23.83;;;14.85;;
69783;SDS011;57054;51.978;4.498;2023-02-15T01:00:17;25.52;;;15.98;;
69783;SDS011;57054;51.978;4.498;2023-02-15T01:02:43;24.90;;;14.68;;
69783;SDS011;57054;51.978;4.498;2023-02-15T01:05:08;21.42;;;13.90;;
69783;SDS011;57054;51.978;4.498;2023-02-15T01:07:33;25.95;;;15.70;;
69783;SDS011;57054;51.978;4.498;2023-02-15T01:09:59;22.60;;;14.55;;
69783;SDS011;57054;51.978;4.498;2023-02-15T01:12:24;22.02;;;14.32;;
69783;SDS011;57054;51.978;4.498;2023-02-15T01:14:49;20.98;;;13.57;;
69783;SDS011;57054;51.978;4.498;2023-02-15T01:17:15;22.55;;;14.02;;
69783;SDS011;57054;51.978;4.498;2023-02-15T01:19:40;22.48;;;14.48;;
69783;SDS011;57054;51.978;4.498;2023-02-15T01:22:05;20.00;;;14.20;;
69783;SDS011;57054;51.978;4.498;2023-02-15T01:24:31;22.75;;;15.35;;
69783;SDS011;57054;51.978;4.498;2023-02-15T01:26:56;19.88;;;13.52;;
69783;SDS011;57054;51.978;4.498;2023-02-15T01:29:22;23.90;;;14.52;;
69783;SDS011;57054;51.978;4.498;2023-02-15T01:31:47;23.63;;;15.63;;
69783;SDS011;57054;51.978;4.498;2023-02-15T01:34:12;22.55;;;14.30;;
69783;SDS011;57054;51.978;4.498;2023-02-15T01:36:38;21.98;;;14.05;;
69783;SDS011;57054;51.978;4.498;2023-02-15T01:39:03;24.20;;;15.15;;
69783;SDS011;57054;51.978;4.498;2023-02-15T01:41:29;19.33;;;13.38;;
69783;SDS011;57054;51.978;4.498;2023-02-15T01:43:58;20.40;;;14.25;;
69783;SDS011;57054;51.978;4.498;2023-02-15T01:46:30;22.23;;;14.75;;
69783;SDS011;57054;51.978;4.498;2023-02-15T01:49:01;20.95;;;13.98;;
69783;SDS011;57054;51.978;4.498;2023-02-15T01:51:30;22.08;;;14.23;;
69783;SDS011;57054;51.978;4.498;2023-02-15T01:54:08;25.60;;;14.68;;
69783;SDS011;57054;51.978;4.498;2023-02-15T01:56:41;20.73;;;14.27;;
69783;SDS011;57054;51.978;4.498;2023-02-15T01:59:09;21.83;;;14.00;;
69783;SDS011;57054;51.978;4.498;2023-02-15T02:01:40;20.25;;;12.75;;
69783;SDS011;57054;51.978;4.498;2023-02-15T02:04:23;20.85;;;13.55;;
69783;SDS011;57054;51.978;4.498;2023-02-15T02:06:54;18.65;;;13.13;;
69783;SDS011;57054;51.978;4.498;2023-02-15T02:09:22;21.75;;;13.30;;
69783;SDS011;57054;51.978;4.498;2023-02-15T02:11:49;23.27;;;13.82;;
69783;SDS011;57054;51.978;4.498;2023-02-15T02:14:15;20.48;;;13.65;;
69783;SDS011;57054;51.978;4.498;2023-02-15T02:28:09;16.08;;;11.00;;
69783;SDS011;57054;51.978;4.498;2023-02-15T02:31:10;15.15;;;11.13;;
69783;SDS011;57054;51.978;4.498;2023-02-15T02:42:27;12.95;;;11.27;;
69783;SDS011;57054;51.978;4.498;2023-02-15T02:45:00;15.18;;;11.13;;
69783;SDS011;57054;51.978;4.498;2023-02-15T02:47:34;13.45;;;10.55;;
69783;SDS011;57054;51.978;4.498;2023-02-15T02:50:06;14.13;;;11.10;;
69783;SDS011;57054;51.978;4.498;2023-02-15T02:52:45;14.18;;;10.43;;
69783;SDS011;57054;51.978;4.498;2023-02-15T02:55:16;17.05;;;11.20;;
69783;SDS011;57054;51.978;4.498;2023-02-15T02:57:54;15.07;;;11.48;;
69783;SDS011;57054;51.978;4.498;2023-02-15T03:00:25;15.80;;;11.43;;
69783;SDS011;57054;51.978;4.498;2023-02-15T03:03:00;14.88;;;11.32;;
69783;SDS011;57054;51.978;4.498;2023-02-15T03:05:31;14.82;;;10.55;;
69783;SDS011;57054;51.978;4.498;2023-02-15T03:07:59;19.92;;;12.63;;
69783;SDS011;57054;51.978;4.498;2023-02-15T03:10:31;15.00;;;11.30;;
69783;SDS011;57054;51.978;4.498;2023-02-15T03:12:59;17.80;;;12.38;;
69783;SDS011;57054;51.978;4.498;2023-02-15T03:15:26;15.52;;;11.43;;
69783;SDS011;57054;51.978;4.498;2023-02-15T03:18:20;18.02;;;12.35;;
69783;SDS011;57054;51.978;4.498;2023-02-15T03:20:49;18.58;;;13.23;;
69783;SDS011;57054;51.978;4.498;2023-02-15T03:23:18;17.33;;;12.23;;
69783;SDS011;57054;51.978;4.498;2023-02-15T03:25:57;19.63;;;13.50;;
69783;SDS011;57054;51.978;4.498;2023-02-15T03:28:36;21.33;;;13.13;;
69783;SDS011;57054;51.978;4.498;2023-02-15T03:31:07;18.75;;;12.40;;
69783;SDS011;57054;51.978;4.498;2023-02-15T03:33:35;18.83;;;12.43;;
69783;SDS011;57054;51.978;4.498;2023-02-15T03:41:16;17.75;;;12.32;;
69783;SDS011;57054;51.978;4.498;2023-02-15T03:43:49;18.15;;;11.43;;
69783;SDS011;57054;51.978;4.498;2023-02-15T03:47:03;18.65;;;12.43;;
69783;SDS011;57054;51.978;4.498;2023-02-15T03:49:27;16.65;;;11.50;;
69783;SDS011;57054;51.978;4.498;2023-02-15T03:51:59;15.55;;;11.13;;
69783;SDS011;57054;51.978;4.498;2023-02-15T03:54:27;16.33;;;11.73;;
69783;SDS011;57054;51.978;4.498;2023-02-15T03:57:09;17.05;;;10.88;;
69783;SDS011;57054;51.978;4.498;2023-02-15T03:59:56;15.00;;;11.25;;
69783;SDS011;57054;51.978;4.498;2023-02-15T04:02:52;17.33;;;12.00;;
69783;SDS011;57054;51.978;4.498;2023-02-15T04:05:21;17.67;;;11.25;;
69783;SDS011;57054;51.978;4.498;2023-02-15T04:07:46;14.98;;;11.15;;
69783;SDS011;57054;51.978;4.498;2023-02-15T04:10:12;16.95;;;12.27;;
69783;SDS011;57054;51.978;4.498;2023-02-15T04:12:56;18.25;;;12.38;;
69783;SDS011;57054;51.978;4.498;2023-02-15T04:15:21;17.88;;;12.38;;
69783;SDS011;57054;51.978;4.498;2023-02-15T04:18:05;16.75;;;12.20;;
69783;SDS011;57054;51.978;4.498;2023-02-15T04:20:30;17.38;;;11.75;;
69783;SDS011;57054;51.978;4.498;2023-02-15T04:23:14;15.88;;;11.07;;
69783;SDS011;57054;51.978;4.498;2023-02-15T04:25:58;21.50;;;12.98;;
69783;SDS011;57054;51.978;4.498;2023-02-15T04:28:23;15.30;;;11.00;;
69783;SDS011;57054;51.978;4.498;2023-02-15T04:30:49;17.38;;;11.95;;
69783;SDS011;57054;51.978;4.498;2023-02-15T04:33:14;14.45;;;10.55;;
69783;SDS011;57054;51.978;4.498;2023-02-15T04:35:40;15.00;;;11.95;;
69783;SDS011;57054;51.978;4.498;2023-02-15T04:38:05;14.90;;;10.07;;
69783;SDS011;57054;51.978;4.498;2023-02-15T04:40:30;15.32;;;11.30;;
69783;SDS011;57054;51.978;4.498;2023-02-15T04:42:56;17.13;;;11.52;;
69783;SDS011;57054;51.978;4.498;2023-02-15T04:45:21;20.42;;;11.95;;
69783;SDS011;57054;51.978;4.498;2023-02-15T04:47:47;17.73;;;11.90;;
69783;SDS011;57054;51.978;4.498;2023-02-15T04:50:12;19.10;;;12.27;;
69783;SDS011;57054;51.978;4.498;2023-02-15T04:52:37;19.75;;;12.27;;
69783;SDS011;57054;51.978;4.498;2023-02-15T04:55:03;18.00;;;11.93;;
69783;SDS011;57054;51.978;4.498;2023-02-15T04:57:28;20.08;;;12.55;;
69783;SDS011;57054;51.978;4.498;2023-02-15T04:59:54;18.42;;;11.77;;
69783;SDS011;57054;51.978;4.498;2023-02-15T05:02:19;16.58;;;11.85;;
69783;SDS011;57054;51.978;4.498;2023-02-15T05:04:45;18.33;;;12.90;;
69783;SDS011;57054;51.978;4.498;2023-02-15T05:07:10;19.02;;;12.68;;
69783;SDS011;57054;51.978;4.498;2023-02-15T05:09:36;21.77;;;13.07;;
69783;SDS011;57054;51.978;4.498;2023-02-15T05:12:01;23.55;;;12.38;;
69783;SDS011;57054;51.978;4.498;2023-02-15T05:14:27;20.45;;;13.15;;
69783;SDS011;57054;51.978;4.498;2023-02-15T05:16:52;19.55;;;12.80;;
69783;SDS011;57054;51.978;4.498;2023-02-15T05:19:18;21.25;;;13.80;;
69783;SDS011;57054;51.978;4.498;2023-02-15T05:21:44;21.75;;;13.35;;
69783;SDS011;57054;51.978;4.498;2023-02-15T05:24:09;21.15;;;13.25;;
69783;SDS011;57054;51.978;4.498;2023-02-15T05:26:54;17.92;;;12.80;;
69783;SDS011;57054;51.978;4.498;2023-02-15T05:29:38;18.33;;;12.43;;
69783;SDS011;57054;51.978;4.498;2023-02-15T05:32:03;19.15;;;13.18;;
69783;SDS011;57054;51.978;4.498;2023-02-15T05:34:29;24.17;;;13.23;;
69783;SDS011;57054;51.978;4.498;2023-02-15T05:36:54;18.98;;;13.10;;
69783;SDS011;57054;51.978;4.498;2023-02-15T05:39:20;20.05;;;12.75;;
69783;SDS011;57054;51.978;4.498;2023-02-15T05:41:45;23.58;;;13.48;;
69783;SDS011;57054;51.978;4.498;2023-02-15T05:44:10;22.13;;;13.15;;
69783;SDS011;57054;51.978;4.498;2023-02-15T05:46:36;19.50;;;12.43;;
69783;SDS011;57054;51.978;4.498;2023-02-15T05:49:01;21.17;;;13.82;;
69783;SDS011;57054;51.978;4.498;2023-02-15T05:51:26;20.85;;;13.45;;
69783;SDS011;57054;51.978;4.498;2023-02-15T05:53:52;21.10;;;14.02;;
69783;SDS011;57054;51.978;4.498;2023-02-15T05:56:17;20.23;;;13.20;;
69783;SDS011;57054;51.978;4.498;2023-02-15T05:58:42;22.73;;;13.23;;
69783;SDS011;57054;51.978;4.498;2023-02-15T06:03:34;23.35;;;13.93;;
69783;SDS011;57054;51.978;4.498;2023-02-15T06:05:59;20.58;;;13.65;;
69783;SDS011;57054;51.978;4.498;2023-02-15T06:08:25;21.05;;;12.82;;
69783;SDS011;57054;51.978;4.498;2023-02-15T06:10:50;24.63;;;14.02;;
69783;SDS011;57054;51.978;4.498;2023-02-15T06:13:15;21.25;;;13.13;;
69783;SDS011;57054;51.978;4.498;2023-02-15T06:15:41;20.90;;;12.90;;
69783;SDS011;57054;51.978;4.498;2023-02-15T06:18:06;24.60;;;13.90;;
69783;SDS011;57054;51.978;4.498;2023-02-15T06:20:32;24.42;;;14.02;;
69783;SDS011;57054;51.978;4.498;2023-02-15T06:22:57;22.77;;;13.52;;
69783;SDS011;57054;51.978;4.498;2023-02-15T06:25:22;21.02;;;12.38;;
69783;SDS011;57054;51.978;4.498;2023-02-15T06:27:49;21.55;;;13.60;;
69783;SDS011;57054;51.978;4.498;2023-02-15T06:30:15;20.40;;;13.25;;
69783;SDS011;57054;51.978;4.498;2023-02-15T06:32:40;18.92;;;12.80;;
69783;SDS011;57054;51.978;4.498;2023-02-15T06:35:06;20.05;;;12.43;;
69783;SDS011;57054;51.978;4.498;2023-02-15T06:37:31;24.30;;;14.10;;
69783;SDS011;57054;51.978;4.498;2023-02-15T06:39:56;19.73;;;13.10;;
69783;SDS011;57054;51.978;4.498;2023-02-15T06:42:23;23.45;;;14.00;;
69783;SDS011;57054;51.978;4.498;2023-02-15T06:44:49;24.15;;;14.35;;
69783;SDS011;57054;51.978;4.498;2023-02-15T06:47:14;20.98;;;12.93;;
69783;SDS011;57054;51.978;4.498;2023-02-15T06:49:40;23.30;;;13.93;;
69783;SDS011;57054;51.978;4.498;2023-02-15T06:52:05;22.35;;;13.43;;
69783;SDS011;57054;51.978;4.498;2023-02-15T06:54:31;20.10;;;13.93;;
69783;SDS011;57054;51.978;4.498;2023-02-15T06:56:56;24.55;;;14.55;;
69783;SDS011;57054;51.978;4.498;2023-02-15T06:59:22;25.27;;;14.73;;
69783;SDS011;57054;51.978;4.498;2023-02-15T07:01:47;22.42;;;13.88;;
69783;SDS011;57054;51.978;4.498;2023-02-15T07:04:13;23.25;;;14.43;;
69783;SDS011;57054;51.978;4.498;2023-02-15T07:06:39;22.70;;;14.15;;
69783;SDS011;57054;51.978;4.498;2023-02-15T07:09:05;26.13;;;15.45;;
69783;SDS011;57054;51.978;4.498;2023-02-15T07:11:30;24.52;;;15.35;;
69783;SDS011;57054;51.978;4.498;2023-02-15T07:14:14;24.88;;;14.98;;
69783;SDS011;57054;51.978;4.498;2023-02-15T07:16:40;25.83;;;13.85;;
69783;SDS011;57054;51.978;4.498;2023-02-15T07:19:05;26.05;;;14.82;;
69783;SDS011;57054;51.978;4.498;2023-02-15T07:21:32;23.52;;;13.77;;
69783;SDS011;57054;51.978;4.498;2023-02-15T07:23:58;25.25;;;14.65;;
69783;SDS011;57054;51.978;4.498;2023-02-15T07:26:23;27.65;;;15.52;;
69783;SDS011;57054;51.978;4.498;2023-02-15T07:28:49;20.95;;;14.13;;
69783;SDS011;57054;51.978;4.498;2023-02-15T07:31:14;27.00;;;15.65;;
69783;SDS011;57054;51.978;4.498;2023-02-15T07:33:40;23.75;;;15.13;;
69783;SDS011;57054;51.978;4.498;2023-02-15T07:36:06;26.75;;;14.63;;
69783;SDS011;57054;51.978;4.498;2023-02-15T07:38:35;23.27;;;14.55;;
69783;SDS011;57054;51.978;4.498;2023-02-15T07:41:06;24.98;;;14.32;;
69783;SDS011;57054;51.978;4.498;2023-02-15T07:43:33;29.88;;;16.10;;
69783;SDS011;57054;51.978;4.498;2023-02-15T07:46:00;33.08;;;17.00;;
69783;SDS011;57054;51.978;4.498;2023-02-15T07:48:26;23.95;;;15.57;;
69783;SDS011;57054;51.978;4.498;2023-02-15T07:50:52;31.77;;;16.60;;
69783;SDS011;57054;51.978;4.498;2023-02-15T07:53:17;27.58;;;15.95;;
69783;SDS011;57054;51.978;4.498;2023-02-15T07:55:43;26.75;;;15.15;;
69783;SDS011;57054;51.978;4.498;2023-02-15T07:58:08;27.48;;;14.98;;
69783;SDS011;57054;51.978;4.498;2023-02-15T08:00:33;24.58;;;15.05;;
69783;SDS011;57054;51.978;4.498;2023-02-15T08:03:19;25.50;;;15.85;;
69783;SDS011;57054;51.978;4.498;2023-02-15T08:05:44;30.38;;;17.13;;
69783;SDS011;57054;51.978;4.498;2023-02-15T08:08:10;31.85;;;17.83;;
69783;SDS011;57054;51.978;4.498;2023-02-15T08:11:05;31.65;;;16.50;;
69783;SDS011;57054;51.978;4.498;2023-02-15T08:13:57;31.05;;;17.40;;
69783;SDS011;57054;51.978;4.498;2023-02-15T08:19:19;28.75;;;18.02;;
69783;SDS011;57054;51.978;4.498;2023-02-15T08:21:59;34.78;;;17.33;;
69783;SDS011;57054;51.978;4.498;2023-02-15T08:24:36;29.70;;;18.27;;
69783;SDS011;57054;51.978;4.498;2023-02-15T08:27:03;30.15;;;18.45;;
69783;SDS011;57054;51.978;4.498;2023-02-15T08:29:29;34.38;;;18.90;;
69783;SDS011;57054;51.978;4.498;2023-02-15T08:31:57;30.42;;;18.67;;
69783;SDS011;57054;51.978;4.498;2023-02-15T08:34:26;30.42;;;17.42;;
69783;SDS011;57054;51.978;4.498;2023-02-15T08:36:52;29.85;;;17.17;;
69783;SDS011;57054;51.978;4.498;2023-02-15T08:39:18;29.67;;;17.30;;
69783;SDS011;57054;51.978;4.498;2023-02-15T08:41:44;29.00;;;17.90;;
69783;SDS011;57054;51.978;4.498;2023-02-15T08:44:11;32.72;;;18.05;;
69783;SDS011;57054;51.978;4.498;2023-02-15T08:46:38;29.60;;;17.48;;
69783;SDS011;57054;51.978;4.498;2023-02-15T08:51:33;29.65;;;17.13;;
69783;SDS011;57054;51.978;4.498;2023-02-15T08:54:01;29.85;;;17.60;;
69783;SDS011;57054;51.978;4.498;2023-02-15T08:56:29;33.95;;;18.50;;
69783;SDS011;57054;51.978;4.498;2023-02-15T08:58:57;30.75;;;18.13;;
69783;SDS011;57054;51.978;4.498;2023-02-15T09:01:24;30.73;;;17.30;;
69783;SDS011;57054;51.978;4.498;2023-02-15T09:03:51;30.65;;;18.40;;
69783;SDS011;57054;51.978;4.498;2023-02-15T09:06:20;29.25;;;17.20;;
69783;SDS011;57054;51.978;4.498;2023-02-15T09:08:47;38.15;;;19.42;;
69783;SDS011;57054;51.978;4.498;2023-02-15T09:11:22;39.40;;;22.00;;
69783;SDS011;57054;51.978;4.498;2023-02-15T09:13:57;37.60;;;21.27;;
69783;SDS011;57054;51.978;4.498;2023-02-15T09:16:25;35.72;;;20.58;;
69783;SDS011;57054;51.978;4.498;2023-02-15T09:18:53;43.78;;;24.58;;
69783;SDS011;57054;51.978;4.498;2023-02-15T09:21:20;57.08;;;28.17;;
69783;SDS011;57054;51.978;4.498;2023-02-15T09:23:48;40.35;;;23.30;;
69783;SDS011;57054;51.978;4.498;2023-02-15T09:26:16;42.88;;;23.83;;
69783;SDS011;57054;51.978;4.498;2023-02-15T09:28:43;60.03;;;29.42;;
69783;SDS011;57054;51.978;4.498;2023-02-15T09:31:16;43.97;;;24.60;;
69783;SDS011;57054;51.978;4.498;2023-02-15T09:33:44;92.78;;;43.80;;
69783;SDS011;57054;51.978;4.498;2023-02-15T09:38:41;76.22;;;40.20;;
69783;SDS011;57054;51.978;4.498;2023-02-15T09:44:11;97.45;;;47.90;;
69783;SDS011;57054;51.978;4.498;2023-02-15T09:49:52;95.40;;;47.60;;
69783;SDS011;57054;51.978;4.498;2023-02-15T09:58:11;99.63;;;48.63;;
69783;SDS011;57054;51.978;4.498;2023-02-15T10:03:28;110.75;;;50.35;;
69783;SDS011;57054;51.978;4.498;2023-02-15T10:22:36;96.13;;;46.70;;
69783;SDS011;57054;51.978;4.498;2023-02-15T10:27:47;87.07;;;45.67;;
69783;SDS011;57054;51.978;4.498;2023-02-15T10:30:18;87.15;;;44.17;;
69783;SDS011;57054;51.978;4.498;2023-02-15T10:35:43;82.55;;;43.50;;
69783;SDS011;57054;51.978;4.498;2023-02-15T10:38:40;85.53;;;43.45;;
69783;SDS011;57054;51.978;4.498;2023-02-15T10:46:59;81.88;;;42.65;;
69783;SDS011;57054;51.978;4.498;2023-02-15T11:06:22;78.80;;;42.88;;
69783;SDS011;57054;51.978;4.498;2023-02-15T11:09:00;76.68;;;42.05;;
69783;SDS011;57054;51.978;4.498;2023-02-15T11:11:32;83.85;;;41.88;;
69783;SDS011;57054;51.978;4.498;2023-02-15T11:14:08;79.22;;;40.28;;
69783;SDS011;57054;51.978;4.498;2023-02-15T11:16:41;84.22;;;39.80;;
69783;SDS011;57054;51.978;4.498;2023-02-15T11:19:13;73.25;;;38.38;;
69783;SDS011;57054;51.978;4.498;2023-02-15T11:21:52;71.63;;;40.67;;
69783;SDS011;57054;51.978;4.498;2023-02-15T11:24:20;73.53;;;38.20;;
69783;SDS011;57054;51.978;4.498;2023-02-15T11:26:50;72.60;;;37.95;;
69783;SDS011;57054;51.978;4.498;2023-02-15T11:29:31;77.30;;;38.95;;
69783;SDS011;57054;51.978;4.498;2023-02-15T11:32:12;69.15;;;38.13;;
69783;SDS011;57054;51.978;4.498;2023-02-15T11:34:50;69.88;;;37.10;;
69783;SDS011;57054;51.978;4.498;2023-02-15T11:37:23;73.82;;;37.78;;
69783;SDS011;57054;51.978;4.498;2023-02-15T11:39:52;68.85;;;37.85;;
69783;SDS011;57054;51.978;4.498;2023-02-15T11:42:20;75.78;;;38.85;;
69783;SDS011;57054;51.978;4.498;2023-02-15T11:47:23;74.28;;;38.22;;
69783;SDS011;57054;51.978;4.498;2023-02-15T11:49:48;63.08;;;36.67;;
69783;SDS011;57054;51.978;4.498;2023-02-15T11:52:14;71.93;;;38.42;;
69783;SDS011;57054;51.978;4.498;2023-02-15T11:54:44;68.35;;;37.30;;
69783;SDS011;57054;51.978;4.498;2023-02-15T11:59:57;69.00;;;37.10;;
69783;SDS011;57054;51.978;4.498;2023-02-15T12:02:32;73.90;;;37.33;;
69783;SDS011;57054;51.978;4.498;2023-02-15T12:05:01;66.60;;;36.43;;
69783;SDS011;57054;51.978;4.498;2023-02-15T12:07:42;63.28;;;34.90;;
69783;SDS011;57054;51.978;4.498;2023-02-15T12:13:16;62.30;;;33.88;;
69783;SDS011;57054;51.978;4.498;2023-02-15T12:15:47;70.10;;;35.97;;
69783;SDS011;57054;51.978;4.498;2023-02-15T12:18:48;69.57;;;35.00;;
69783;SDS011;57054;51.978;4.498;2023-02-15T12:21:14;65.40;;;34.65;;
69783;SDS011;57054;51.978;4.498;2023-02-15T12:23:57;65.65;;;36.03;;
69783;SDS011;57054;51.978;4.498;2023-02-15T12:26:29;72.53;;;35.13;;
69783;SDS011;57054;51.978;4.498;2023-02-15T12:28:57;57.55;;;32.83;;
69783;SDS011;57054;51.978;4.498;2023-02-15T12:33:57;62.75;;;33.08;;
69783;SDS011;57054;51.978;4.498;2023-02-15T12:36:38;63.03;;;33.15;;
69783;SDS011;57054;51.978;4.498;2023-02-15T12:41:36;70.35;;;33.67;;
69783;SDS011;57054;51.978;4.498;2023-02-15T12:44:18;60.73;;;33.07;;
69783;SDS011;57054;51.978;4.498;2023-02-15T12:49:35;59.20;;;33.13;;
69783;SDS011;57054;51.978;4.498;2023-02-15T12:52:05;63.50;;;34.25;;
69783;SDS011;57054;51.978;4.498;2023-02-15T12:54:51;59.53;;;32.65;;
69783;SDS011;57054;51.978;4.498;2023-02-15T12:57:21;66.68;;;33.58;;
69783;SDS011;57054;51.978;4.498;2023-02-15T13:03:02;60.40;;;33.55;;
69783;SDS011;57054;51.978;4.498;2023-02-15T13:05:13;59.88;;;35.58;;
69783;SDS011;57054;51.978;4.498;2023-02-15T13:08:09;72.30;;;34.88;;
69783;SDS011;57054;51.978;4.498;2023-02-15T13:13:24;63.88;;;33.63;;
69783;SDS011;57054;51.978;4.498;2023-02-15T13:15:53;65.88;;;33.63;;
69783;SDS011;57054;51.978;4.498;2023-02-15T13:18:42;73.25;;;34.55;;
69783;SDS011;57054;51.978;4.498;2023-02-15T13:23:35;61.75;;;32.33;;
69783;SDS011;57054;51.978;4.498;2023-02-15T13:26:03;65.90;;;32.70;;
69783;SDS011;57054;51.978;4.498;2023-02-15T13:28:37;62.60;;;33.60;;
69783;SDS011;57054;51.978;4.498;2023-02-15T13:31:11;60.80;;;31.95;;
69783;SDS011;57054;51.978;4.498;2023-02-15T13:33:38;65.63;;;32.63;;
69783;SDS011;57054;51.978;4.498;2023-02-15T13:47:52;57.40;;;31.70;;
69783;SDS011;57054;51.978;4.498;2023-02-15T14:01:39;67.82;;;33.90;;
69783;SDS011;57054;51.978;4.498;2023-02-15T14:06:53;59.45;;;31.83;;
69783;SDS011;57054;51.978;4.498;2023-02-15T14:09:36;62.15;;;33.00;;
69783;SDS011;57054;51.978;4.498;2023-02-15T14:14:56;65.35;;;34.25;;
69783;SDS011;57054;51.978;4.498;2023-02-15T14:23:01;57.47;;;32.58;;
69783;SDS011;57054;51.978;4.498;2023-02-15T14:25:41;64.88;;;32.67;;
69783;SDS011;57054;51.978;4.498;2023-02-15T14:28:18;64.95;;;32.15;;
69783;SDS011;57054;51.978;4.498;2023-02-15T14:30:53;61.10;;;32.88;;
69783;SDS011;57054;51.978;4.498;2023-02-15T14:36:04;63.42;;;31.77;;
69783;SDS011;57054;51.978;4.498;2023-02-15T14:42:29;55.25;;;30.98;;
69783;SDS011;57054;51.978;4.498;2023-02-15T14:45:06;64.05;;;32.20;;
69783;SDS011;57054;51.978;4.498;2023-02-15T14:47:51;56.97;;;31.83;;
69783;SDS011;57054;51.978;4.498;2023-02-15T14:50:36;61.28;;;31.77;;
69783;SDS011;57054;51.978;4.498;2023-02-15T14:55:52;60.20;;;30.48;;
69783;SDS011;57054;51.978;4.498;2023-02-15T14:58:32;62.55;;;31.40;;
69783;SDS011;57054;51.978;4.498;2023-02-15T15:01:03;58.13;;;31.10;;
69783;SDS011;57054;51.978;4.498;2023-02-15T15:03:34;60.80;;;31.58;;
69783;SDS011;57054;51.978;4.498;2023-02-15T15:06:01;56.10;;;30.95;;
69783;SDS011;57054;51.978;4.498;2023-02-15T15:11:36;59.33;;;31.88;;
69783;SDS011;57054;51.978;4.498;2023-02-15T15:13:57;56.38;;;30.00;;
69783;SDS011;57054;51.978;4.498;2023-02-15T15:19:00;65.72;;;31.80;;
69783;SDS011;57054;51.978;4.498;2023-02-15T15:24:45;57.58;;;31.33;;
69783;SDS011;57054;51.978;4.498;2023-02-15T15:35:12;62.33;;;32.97;;
69783;SDS011;57054;51.978;4.498;2023-02-15T15:40:41;60.65;;;31.83;;
69783;SDS011;57054;51.978;4.498;2023-02-15T15:48:55;63.45;;;33.90;;
69783;SDS011;57054;51.978;4.498;2023-02-15T15:51:29;61.33;;;34.33;;
69783;SDS011;57054;51.978;4.498;2023-02-15T15:53:56;71.53;;;34.20;;
69783;SDS011;57054;51.978;4.498;2023-02-15T15:56:29;66.78;;;34.47;;
69783;SDS011;57054;51.978;4.498;2023-02-15T15:59:00;57.95;;;31.75;;
69783;SDS011;57054;51.978;4.498;2023-02-15T16:01:31;60.42;;;34.08;;
69783;SDS011;57054;51.978;4.498;2023-02-15T16:04:03;62.15;;;34.10;;
69783;SDS011;57054;51.978;4.498;2023-02-15T16:06:33;58.95;;;34.28;;
69783;SDS011;57054;51.978;4.498;2023-02-15T16:11:51;60.63;;;32.58;;
69783;SDS011;57054;51.978;4.498;2023-02-15T16:14:32;64.03;;;34.78;;
69783;SDS011;57054;51.978;4.498;2023-02-15T16:17:01;55.13;;;31.13;;
69783;SDS011;57054;51.978;4.498;2023-02-15T16:19:34;63.42;;;34.35;;
69783;SDS011;57054;51.978;4.498;2023-02-15T16:22:02;61.75;;;33.30;;
69783;SDS011;57054;51.978;4.498;2023-02-15T16:24:42;54.80;;;30.85;;
69783;SDS011;57054;51.978;4.498;2023-02-15T16:29:42;59.22;;;31.13;;
69783;SDS011;57054;51.978;4.498;2023-02-15T16:32:21;61.00;;;32.53;;
69783;SDS011;57054;51.978;4.498;2023-02-15T16:34:51;54.92;;;31.95;;
69783;SDS011;57054;51.978;4.498;2023-02-15T16:37:22;56.92;;;31.92;;
69783;SDS011;57054;51.978;4.498;2023-02-15T16:39:51;61.90;;;32.88;;
69783;SDS011;57054;51.978;4.498;2023-02-15T16:42:18;65.03;;;33.70;;
69783;SDS011;57054;51.978;4.498;2023-02-15T16:47:36;56.80;;;31.10;;
69783;SDS011;57054;51.978;4.498;2023-02-15T16:50:06;61.38;;;33.75;;
69783;SDS011;57054;51.978;4.498;2023-02-15T16:52:42;64.72;;;33.70;;
69783;SDS011;57054;51.978;4.498;2023-02-15T16:55:17;57.60;;;32.75;;
69783;SDS011;57054;51.978;4.498;2023-02-15T16:57:49;62.20;;;33.15;;
69783;SDS011;57054;51.978;4.498;2023-02-15T17:00:17;57.55;;;31.27;;
69783;SDS011;57054;51.978;4.498;2023-02-15T17:02:58;58.72;;;32.25;;
69783;SDS011;57054;51.978;4.498;2023-02-15T17:05:44;57.13;;;30.80;;
69783;SDS011;57054;51.978;4.498;2023-02-15T17:08:15;57.28;;;31.42;;
69783;SDS011;57054;51.978;4.498;2023-02-15T17:11:00;58.67;;;30.58;;
69783;SDS011;57054;51.978;4.498;2023-02-15T17:13:30;54.72;;;30.25;;
69783;SDS011;57054;51.978;4.498;2023-02-15T17:18:24;57.50;;;29.85;;
69783;SDS011;57054;51.978;4.498;2023-02-15T17:20:52;55.03;;;29.67;;
69783;SDS011;57054;51.978;4.498;2023-02-15T17:23:33;52.42;;;29.50;;
69783;SDS011;57054;51.978;4.498;2023-02-15T17:26:02;53.05;;;28.92;;
69783;SDS011;57054;51.978;4.498;2023-02-15T17:31:24;46.28;;;26.15;;
69783;SDS011;57054;51.978;4.498;2023-02-15T17:33:56;49.15;;;27.10;;
69783;SDS011;57054;51.978;4.498;2023-02-15T17:36:24;43.55;;;25.63;;
69783;SDS011;57054;51.978;4.498;2023-02-15T17:41:21;50.40;;;27.70;;
69783;SDS011;57054;51.978;4.498;2023-02-15T17:43:47;46.03;;;27.05;;
69783;SDS011;57054;51.978;4.498;2023-02-15T17:46:12;49.63;;;28.77;;
69783;SDS011;57054;51.978;4.498;2023-02-15T17:48:39;43.42;;;25.60;;
69783;SDS011;57054;51.978;4.498;2023-02-15T17:51:06;47.67;;;26.90;;
69783;SDS011;57054;51.978;4.498;2023-02-15T17:53:36;47.75;;;28.65;;
69783;SDS011;57054;51.978;4.498;2023-02-15T17:56:01;46.05;;;26.38;;
69783;SDS011;57054;51.978;4.498;2023-02-15T17:58:34;48.38;;;27.60;;
69783;SDS011;57054;51.978;4.498;2023-02-15T18:01:00;49.17;;;28.15;;
69783;SDS011;57054;51.978;4.498;2023-02-15T18:03:50;47.28;;;27.25;;